sensor_id;sensor_type;location;lat;lon;timestamp;pressure;altitude;pressure_sealevel;temperature;humidity
31121;BME280;17770;45.966;13.632;2023-04-16T00:02:21;99966.13;;;17.51;53.90
31121;BME280;17770;45.966;13.632;2023-04-16T00:04:47;99953.19;;;17.49;53.39
31121;BME280;17770;45.966;13.632;2023-04-16T00:07:13;99958.41;;;17.49;53.28
31121;BME280;17770;45.966;13.632;2023-04-16T00:09:39;99955.06;;;17.47;53.66
31121;BME280;17770;45.966;13.632;2023-04-16T00:12:05;99962.97;;;17.46;53.45
31121;BME280;17770;45.966;13.632;2023-04-16T00:14:31;99949.94;;;17.46;53.85
31121;BME280;17770;45.966;13.632;2023-04-16T00:16:57;99970.88;;;17.44;53.45
31121;BME280;17770;45.966;13.632;2023-04-16T00:19:22;99953.56;;;17.43;53.82
31121;BME280;17770;45.966;13.632;2023-04-16T00:21:48;99964.09;;;17.42;53.62
31121;BME280;17770;45.966;13.632;2023-04-16T00:24:14;99963.25;;;17.41;53.61
31121;BME280;17770;45.966;13.632;2023-04-16T00:26:40;99952.06;;;17.39;53.86
31121;BME280;17770;45.966;13.632;2023-04-16T00:29:08;99939.97;;;17.38;53.55
31121;BME280;17770;45.966;13.632;2023-04-16T00:31:35;99945.19;;;17.38;53.52
31121;BME280;17770;45.966;13.632;2023-04-16T00:34:02;99943.50;;;17.37;53.67
31121;BME280;17770;45.966;13.632;2023-04-16T00:36:28;99944.34;;;17.38;53.52
31121;BME280;17770;45.966;13.632;2023-04-16T00:38:54;99951.31;;;17.37;53.49
31121;BME280;17770;45.966;13.632;2023-04-16T00:41:21;99946.22;;;17.36;53.66
31121;BME280;17770;45.966;13.632;2023-04-16T00:43:48;99949.75;;;17.35;53.77
31121;BME280;17770;45.966;13.632;2023-04-16T00:46:14;99948.06;;;17.34;53.44
31121;BME280;17770;45.966;13.632;2023-04-16T00:48:41;99947.34;;;17.32;54.00
31121;BME280;17770;45.966;13.632;2023-04-16T00:51:08;99942.16;;;17.32;53.57
31121;BME280;17770;45.966;13.632;2023-04-16T00:53:34;99947.34;;;17.32;53.90
31121;BME280;17770;45.966;13.632;2023-04-16T00:56:04;99939.63;;;17.30;53.41
31121;BME280;17770;45.966;13.632;2023-04-16T00:58:30;99950.06;;;17.30;53.57
31121;BME280;17770;45.966;13.632;2023-04-16T01:00:56;99952.78;;;17.29;53.64
31121;BME280;17770;45.966;13.632;2023-04-16T01:03:23;99940.66;;;17.28;53.82
31121;BME280;17770;45.966;13.632;2023-04-16T01:05:51;99945.03;;;17.27;53.93
31121;BME280;17770;45.966;13.632;2023-04-16T01:08:18;99946.81;;;17.27;53.43
31121;BME280;17770;45.966;13.632;2023-04-16T01:10:44;99942.50;;;17.26;53.70
31121;BME280;17770;45.966;13.632;2023-04-16T01:13:11;99953.78;;;17.26;53.82
31121;BME280;17770;45.966;13.632;2023-04-16T01:15:37;99943.47;;;17.25;53.94
31121;BME280;17770;45.966;13.632;2023-04-16T01:18:11;99932.28;;;17.23;53.52
31121;BME280;17770;45.966;13.632;2023-04-16T01:20:38;99944.47;;;17.22;53.85
31121;BME280;17770;45.966;13.632;2023-04-16T01:23:03;99940.31;;;17.20;53.95
31121;BME280;17770;45.966;13.632;2023-04-16T01:25:29;99933.44;;;17.19;53.47
31121;BME280;17770;45.966;13.632;2023-04-16T01:27:55;99948.13;;;17.20;53.90
31121;BME280;17770;45.966;13.632;2023-04-16T01:30:24;99946.56;;;17.17;53.88
31121;BME280;17770;45.966;13.632;2023-04-16T01:33:16;99940.50;;;17.17;53.77
31121;BME280;17770;45.966;13.632;2023-04-16T01:35:42;99938.75;;;17.17;53.60
31121;BME280;17770;45.966;13.632;2023-04-16T01:38:08;99943.13;;;17.17;53.40
31121;BME280;17770;45.966;13.632;2023-04-16T01:40:35;99942.28;;;17.16;53.64
31121;BME280;17770;45.966;13.632;2023-04-16T01:43:01;99956.25;;;17.15;53.67
31121;BME280;17770;45.966;13.632;2023-04-16T01:45:27;99943.22;;;17.15;53.89
31121;BME280;17770;45.966;13.632;2023-04-16T01:47:53;99948.53;;;17.14;53.97
31121;BME280;17770;45.966;13.632;2023-04-16T01:50:19;99951.13;;;17.14;54.01
31121;BME280;17770;45.966;13.632;2023-04-16T01:52:45;99952.03;;;17.13;54.01
31121;BME280;17770;45.966;13.632;2023-04-16T01:55:11;99944.31;;;17.11;54.07
31121;BME280;17770;45.966;13.632;2023-04-16T01:57:37;99948.69;;;17.11;53.70
31121;BME280;17770;45.966;13.632;2023-04-16T02:00:03;99948.69;;;17.11;53.35
31121;BME280;17770;45.966;13.632;2023-04-16T02:02:31;99945.38;;;17.09;53.82
31121;BME280;17770;45.966;13.632;2023-04-16T02:04:58;99953.19;;;17.09;53.77
31121;BME280;17770;45.966;13.632;2023-04-16T02:07:24;99963.59;;;17.09;53.50
31121;BME280;17770;45.966;13.632;2023-04-16T02:09:50;99962.84;;;17.07;53.77
31121;BME280;17770;45.966;13.632;2023-04-16T02:12:16;99955.16;;;17.05;53.41
31121;BME280;17770;45.966;13.632;2023-04-16T02:14:42;99962.22;;;17.03;53.92
31121;BME280;17770;45.966;13.632;2023-04-16T02:17:09;99954.28;;;17.05;53.66
31121;BME280;17770;45.966;13.632;2023-04-16T02:19:40;99977.00;;;17.03;53.45
31121;BME280;17770;45.966;13.632;2023-04-16T02:22:07;99955.44;;;17.01;53.76
31121;BME280;17770;45.966;13.632;2023-04-16T02:24:33;99952.91;;;16.99;53.83
31121;BME280;17770;45.966;13.632;2023-04-16T02:27:03;99960.00;;;16.97;53.63
31121;BME280;17770;45.966;13.632;2023-04-16T02:29:29;99961.75;;;16.97;53.82
31121;BME280;17770;45.966;13.632;2023-04-16T02:32:04;99976.53;;;16.96;53.57
31121;BME280;17770;45.966;13.632;2023-04-16T02:34:32;99958.41;;;16.94;54.18
31121;BME280;17770;45.966;13.632;2023-04-16T02:36:59;99964.47;;;16.95;54.13
31121;BME280;17770;45.966;13.632;2023-04-16T02:39:25;99965.38;;;16.94;53.65
31121;BME280;17770;45.966;13.632;2023-04-16T02:41:52;99953.38;;;16.91;54.07
31121;BME280;17770;45.966;13.632;2023-04-16T02:44:19;99962.06;;;16.92;54.27
31121;BME280;17770;45.966;13.632;2023-04-16T02:46:46;99956.94;;;16.90;54.12
31121;BME280;17770;45.966;13.632;2023-04-16T02:49:12;99945.69;;;16.90;53.43
31121;BME280;17770;45.966;13.632;2023-04-16T02:51:38;99967.44;;;16.89;54.40
31121;BME280;17770;45.966;13.632;2023-04-16T02:54:03;99971.06;;;16.86;54.01
31121;BME280;17770;45.966;13.632;2023-04-16T02:56:31;99951.06;;;16.87;54.14
31121;BME280;17770;45.966;13.632;2023-04-16T02:58:56;99979.81;;;16.85;54.31
31121;BME280;17770;45.966;13.632;2023-04-16T03:01:22;99978.22;;;16.83;53.71
31121;BME280;17770;45.966;13.632;2023-04-16T03:03:48;99944.38;;;16.83;54.43
31121;BME280;17770;45.966;13.632;2023-04-16T03:06:14;99966.97;;;16.82;53.67
31121;BME280;17770;45.966;13.632;2023-04-16T03:08:40;99945.31;;;16.82;54.35
31121;BME280;17770;45.966;13.632;2023-04-16T03:11:05;99968.00;;;16.80;53.95
31121;BME280;17770;45.966;13.632;2023-04-16T03:13:32;99966.25;;;16.80;53.70
31121;BME280;17770;45.966;13.632;2023-04-16T03:15:57;99972.38;;;16.79;54.17
31121;BME280;17770;45.966;13.632;2023-04-16T03:18:23;99964.56;;;16.79;54.28
31121;BME280;17770;45.966;13.632;2023-04-16T03:20:52;99977.66;;;16.78;54.41
31121;BME280;17770;45.966;13.632;2023-04-16T03:23:18;99974.22;;;16.77;53.97
31121;BME280;17770;45.966;13.632;2023-04-16T03:25:44;99973.41;;;16.77;53.79
31121;BME280;17770;45.966;13.632;2023-04-16T03:28:14;99976.09;;;16.75;54.38
31121;BME280;17770;45.966;13.632;2023-04-16T03:30:41;99976.09;;;16.75;54.34
31121;BME280;17770;45.966;13.632;2023-04-16T03:33:07;99971.00;;;16.74;54.08
31121;BME280;17770;45.966;13.632;2023-04-16T03:35:33;99984.81;;;16.74;54.12
31121;BME280;17770;45.966;13.632;2023-04-16T03:38:00;99986.63;;;16.74;54.43
31121;BME280;17770;45.966;13.632;2023-04-16T03:40:27;99993.69;;;16.72;53.87
31121;BME280;17770;45.966;13.632;2023-04-16T03:42:53;99988.47;;;16.72;53.91
31121;BME280;17770;45.966;13.632;2023-04-16T03:45:18;99998.97;;;16.70;54.46
31121;BME280;17770;45.966;13.632;2023-04-16T03:47:46;99996.47;;;16.69;54.29
31121;BME280;17770;45.966;13.632;2023-04-16T03:50:17;100001.78;;;16.67;54.01
31121;BME280;17770;45.966;13.632;2023-04-16T03:52:44;99997.47;;;16.66;54.32
31121;BME280;17770;45.966;13.632;2023-04-16T03:55:11;100002.69;;;16.66;54.19
31121;BME280;17770;45.966;13.632;2023-04-16T03:57:38;100006.22;;;16.65;54.44
31121;BME280;17770;45.966;13.632;2023-04-16T04:00:09;100009.75;;;16.64;54.52
31121;BME280;17770;45.966;13.632;2023-04-16T04:02:50;100006.31;;;16.64;53.97
31121;BME280;17770;45.966;13.632;2023-04-16T04:05:18;100011.53;;;16.64;54.06
31121;BME280;17770;45.966;13.632;2023-04-16T04:07:45;100021.09;;;16.63;54.50
31121;BME280;17770;45.966;13.632;2023-04-16T04:10:12;100022.94;;;16.61;53.96
31121;BME280;17770;45.966;13.632;2023-04-16T04:12:40;100020.34;;;16.61;54.27
31121;BME280;17770;45.966;13.632;2023-04-16T04:15:06;100028.25;;;16.60;53.88
31121;BME280;17770;45.966;13.632;2023-04-16T04:17:32;100036.91;;;16.60;53.94
31121;BME280;17770;45.966;13.632;2023-04-16T04:19:58;100044.81;;;16.59;54.45
31121;BME280;17770;45.966;13.632;2023-04-16T04:22:24;100040.41;;;16.59;54.04
31121;BME280;17770;45.966;13.632;2023-04-16T04:24:51;100045.72;;;16.58;54.16
31121;BME280;17770;45.966;13.632;2023-04-16T04:27:17;100045.72;;;16.58;54.54
31121;BME280;17770;45.966;13.632;2023-04-16T04:29:43;100040.59;;;16.56;53.61
31121;BME280;17770;45.966;13.632;2023-04-16T04:32:10;100045.00;;;16.56;54.15
31121;BME280;17770;45.966;13.632;2023-04-16T04:34:35;100058.84;;;16.56;54.22
31121;BME280;17770;45.966;13.632;2023-04-16T04:37:02;100069.34;;;16.55;54.46
31121;BME280;17770;45.966;13.632;2023-04-16T04:39:28;100057.25;;;16.54;54.04
31121;BME280;17770;45.966;13.632;2023-04-16T04:41:54;100055.47;;;16.54;54.17
31121;BME280;17770;45.966;13.632;2023-04-16T04:44:19;100060.78;;;16.53;54.30
31121;BME280;17770;45.966;13.632;2023-04-16T04:46:45;100075.56;;;16.52;53.90
31121;BME280;17770;45.966;13.632;2023-04-16T04:49:11;100076.47;;;16.51;54.27
31121;BME280;17770;45.966;13.632;2023-04-16T04:51:37;100070.47;;;16.51;53.81
31121;BME280;17770;45.966;13.632;2023-04-16T04:54:03;100065.34;;;16.49;54.18
31121;BME280;17770;45.966;13.632;2023-04-16T04:56:29;100078.38;;;16.49;54.42
31121;BME280;17770;45.966;13.632;2023-04-16T04:58:55;100067.94;;;16.49;53.94
31121;BME280;17770;45.966;13.632;2023-04-16T05:01:21;100074.91;;;16.49;53.97
31121;BME280;17770;45.966;13.632;2023-04-16T05:03:47;100075.91;;;16.46;54.20
31121;BME280;17770;45.966;13.632;2023-04-16T05:06:13;100075.81;;;16.48;54.17
31121;BME280;17770;45.966;13.632;2023-04-16T05:08:39;100079.38;;;16.47;53.92
31121;BME280;17770;45.966;13.632;2023-04-16T05:11:04;100088.13;;;16.46;54.20
31121;BME280;17770;45.966;13.632;2023-04-16T05:13:30;100084.66;;;16.45;53.84
31121;BME280;17770;45.966;13.632;2023-04-16T05:15:56;100084.72;;;16.44;54.53
31121;BME280;17770;45.966;13.632;2023-04-16T05:18:22;100089.09;;;16.43;54.33
31121;BME280;17770;45.966;13.632;2023-04-16T05:20:48;100088.22;;;16.43;54.14
31121;BME280;17770;45.966;13.632;2023-04-16T05:23:14;100086.56;;;16.42;53.95
31121;BME280;17770;45.966;13.632;2023-04-16T05:25:40;100091.78;;;16.42;54.15
31121;BME280;17770;45.966;13.632;2023-04-16T05:28:06;100104.78;;;16.42;53.96
31121;BME280;17770;45.966;13.632;2023-04-16T05:30:31;100097.91;;;16.41;54.01
31121;BME280;17770;45.966;13.632;2023-04-16T05:32:57;100103.94;;;16.41;54.38
31121;BME280;17770;45.966;13.632;2023-04-16T05:35:23;100102.28;;;16.40;54.37
31121;BME280;17770;45.966;13.632;2023-04-16T05:37:49;100098.00;;;16.39;53.73
31121;BME280;17770;45.966;13.632;2023-04-16T05:40:15;100098.81;;;16.40;53.75
31121;BME280;17770;45.966;13.632;2023-04-16T05:42:40;100100.59;;;16.39;54.38
31121;BME280;17770;45.966;13.632;2023-04-16T05:45:06;100110.25;;;16.37;54.12
31121;BME280;17770;45.966;13.632;2023-04-16T05:47:32;100118.06;;;16.37;54.10
31121;BME280;17770;45.966;13.632;2023-04-16T05:49:58;100107.75;;;16.36;54.44
31121;BME280;17770;45.966;13.632;2023-04-16T05:52:24;100126.78;;;16.36;54.28
31121;BME280;17770;45.966;13.632;2023-04-16T05:54:50;100113.78;;;16.36;53.79
31121;BME280;17770;45.966;13.632;2023-04-16T05:57:16;100131.19;;;16.36;53.82
31121;BME280;17770;45.966;13.632;2023-04-16T05:59:41;100130.31;;;16.35;54.41
31121;BME280;17770;45.966;13.632;2023-04-16T06:02:07;100107.75;;;16.36;53.91
31121;BME280;17770;45.966;13.632;2023-04-16T06:04:33;100115.66;;;16.34;54.19
31121;BME280;17770;45.966;13.632;2023-04-16T06:07:00;100128.66;;;16.34;54.00
31121;BME280;17770;45.966;13.632;2023-04-16T06:09:26;100133.88;;;16.34;53.94
31121;BME280;17770;45.966;13.632;2023-04-16T06:11:52;100133.97;;;16.33;53.93
31121;BME280;17770;45.966;13.632;2023-04-16T06:14:18;100144.28;;;16.34;54.05
31121;BME280;17770;45.966;13.632;2023-04-16T06:16:44;100140.91;;;16.32;53.80
31121;BME280;17770;45.966;13.632;2023-04-16T06:19:10;100134.00;;;16.31;53.93
31121;BME280;17770;45.966;13.632;2023-04-16T06:21:36;100141.81;;;16.31;53.76
31121;BME280;17770;45.966;13.632;2023-04-16T06:24:02;100144.50;;;16.30;53.96
31121;BME280;17770;45.966;13.632;2023-04-16T06:26:28;100141.91;;;16.30;54.07
31121;BME280;17770;45.966;13.632;2023-04-16T06:28:54;100138.50;;;16.29;53.78
31121;BME280;17770;45.966;13.632;2023-04-16T06:31:20;100147.03;;;16.31;54.41
31121;BME280;17770;45.966;13.632;2023-04-16T06:33:46;100143.69;;;16.29;54.31
31121;BME280;17770;45.966;13.632;2023-04-16T06:36:11;100138.50;;;16.29;53.74
31121;BME280;17770;45.966;13.632;2023-04-16T06:38:37;100137.66;;;16.29;54.23
31121;BME280;17770;45.966;13.632;2023-04-16T06:41:03;100143.78;;;16.28;53.82
31121;BME280;17770;45.966;13.632;2023-04-16T06:43:29;100162.81;;;16.28;53.67
31121;BME280;17770;45.966;13.632;2023-04-16T06:45:57;100153.34;;;16.27;53.79
31121;BME280;17770;45.966;13.632;2023-04-16T06:48:22;100149.03;;;16.26;53.94
31121;BME280;17770;45.966;13.632;2023-04-16T06:50:48;100145.63;;;16.26;53.87
31121;BME280;17770;45.966;13.632;2023-04-16T06:53:14;100152.41;;;16.28;53.69
31121;BME280;17770;45.966;13.632;2023-04-16T06:55:40;100158.47;;;16.29;54.24
31121;BME280;17770;45.966;13.632;2023-04-16T06:58:06;100159.47;;;16.26;54.13
31121;BME280;17770;45.966;13.632;2023-04-16T07:00:32;100164.59;;;16.28;54.11
31121;BME280;17770;45.966;13.632;2023-04-16T07:02:59;100162.91;;;16.27;53.68
31121;BME280;17770;45.966;13.632;2023-04-16T07:05:25;100157.69;;;16.27;53.60
31121;BME280;17770;45.966;13.632;2023-04-16T07:07:51;100160.31;;;16.27;53.65
31121;BME280;17770;45.966;13.632;2023-04-16T07:10:17;100168.97;;;16.27;54.21
31121;BME280;17770;45.966;13.632;2023-04-16T07:12:43;100168.09;;;16.27;53.55
31121;BME280;17770;45.966;13.632;2023-04-16T07:15:09;100168.09;;;16.27;53.63
31121;BME280;17770;45.966;13.632;2023-04-16T07:17:35;100171.56;;;16.27;53.77
31121;BME280;17770;45.966;13.632;2023-04-16T07:20:01;100163.94;;;16.24;54.26
31121;BME280;17770;45.966;13.632;2023-04-16T07:22:27;100168.28;;;16.24;53.70
31121;BME280;17770;45.966;13.632;2023-04-16T07:24:52;100168.38;;;16.22;53.88
31121;BME280;17770;45.966;13.632;2023-04-16T07:27:18;100171.81;;;16.23;54.17
31121;BME280;17770;45.966;13.632;2023-04-16T07:29:44;100169.13;;;16.24;54.06
31121;BME280;17770;45.966;13.632;2023-04-16T07:32:10;100172.47;;;16.26;53.91
31121;BME280;17770;45.966;13.632;2023-04-16T07:34:36;100175.06;;;16.26;53.89
31121;BME280;17770;45.966;13.632;2023-04-16T07:37:02;100176.00;;;16.25;53.71
31121;BME280;17770;45.966;13.632;2023-04-16T07:39:28;100175.16;;;16.25;53.54
31121;BME280;17770;45.966;13.632;2023-04-16T07:41:54;100184.66;;;16.26;54.10
31121;BME280;17770;45.966;13.632;2023-04-16T07:44:20;100189.00;;;16.25;54.08
31121;BME280;17770;45.966;13.632;2023-04-16T07:46:46;100189.00;;;16.25;53.64
31121;BME280;17770;45.966;13.632;2023-04-16T07:49:11;100192.56;;;16.24;53.46
31121;BME280;17770;45.966;13.632;2023-04-16T07:51:37;100188.16;;;16.25;53.60
31121;BME280;17770;45.966;13.632;2023-04-16T07:54:03;100187.34;;;16.24;53.96
31121;BME280;17770;45.966;13.632;2023-04-16T07:56:29;100197.66;;;16.26;54.08
31121;BME280;17770;45.966;13.632;2023-04-16T07:58:55;100179.47;;;16.26;53.47
31121;BME280;17770;45.966;13.632;2023-04-16T08:01:20;100184.56;;;16.27;53.60
31121;BME280;17770;45.966;13.632;2023-04-16T08:03:46;100195.88;;;16.26;53.39
31121;BME280;17770;45.966;13.632;2023-04-16T08:06:12;100203.69;;;16.26;53.75
31121;BME280;17770;45.966;13.632;2023-04-16T08:08:38;100196.66;;;16.28;53.79
31121;BME280;17770;45.966;13.632;2023-04-16T08:11:04;100193.22;;;16.28;53.59
31121;BME280;17770;45.966;13.632;2023-04-16T08:13:29;100201.03;;;16.28;53.25
31121;BME280;17770;45.966;13.632;2023-04-16T08:15:55;100195.84;;;16.28;53.34
31121;BME280;17770;45.966;13.632;2023-04-16T08:18:21;100203.63;;;16.28;53.20
31121;BME280;17770;45.966;13.632;2023-04-16T08:20:47;100206.25;;;16.28;54.00
31121;BME280;17770;45.966;13.632;2023-04-16T08:23:13;100216.66;;;16.28;53.38
31121;BME280;17770;45.966;13.632;2023-04-16T08:25:39;100214.78;;;16.30;53.54
31121;BME280;17770;45.966;13.632;2023-04-16T08:28:04;100217.47;;;16.28;53.34
31121;BME280;17770;45.966;13.632;2023-04-16T08:30:30;100215.63;;;16.30;53.10
31121;BME280;17770;45.966;13.632;2023-04-16T08:32:56;100215.63;;;16.30;53.49
31121;BME280;17770;45.966;13.632;2023-04-16T08:35:22;100216.69;;;16.26;53.22
31121;BME280;17770;45.966;13.632;2023-04-16T08:37:48;100229.72;;;16.26;53.80
31121;BME280;17770;45.966;13.632;2023-04-16T08:40:14;100212.44;;;16.25;53.51
31121;BME280;17770;45.966;13.632;2023-04-16T08:42:52;100220.16;;;16.27;53.53
31121;BME280;17770;45.966;13.632;2023-04-16T08:45:20;100217.56;;;16.27;53.26
31121;BME280;17770;45.966;13.632;2023-04-16T08:47:47;100215.81;;;16.27;53.43
31121;BME280;17770;45.966;13.632;2023-04-16T08:50:16;100220.16;;;16.27;53.87
31121;BME280;17770;45.966;13.632;2023-04-16T08:52:45;100225.34;;;16.27;53.75
31121;BME280;17770;45.966;13.632;2023-04-16T08:55:15;100226.22;;;16.27;53.61
31121;BME280;17770;45.966;13.632;2023-04-16T08:57:51;100221.00;;;16.27;53.90
31121;BME280;17770;45.966;13.632;2023-04-16T09:00:18;100228.72;;;16.29;53.78
31121;BME280;17770;45.966;13.632;2023-04-16T09:02:44;100218.31;;;16.29;53.45
31121;BME280;17770;45.966;13.632;2023-04-16T09:05:14;100222.59;;;16.30;53.56
31121;BME280;17770;45.966;13.632;2023-04-16T09:07:44;100220.81;;;16.30;53.33
31121;BME280;17770;45.966;13.632;2023-04-16T09:10:11;100219.88;;;16.31;53.16
31121;BME280;17770;45.966;13.632;2023-04-16T09:12:37;100225.84;;;16.33;53.16
31121;BME280;17770;45.966;13.632;2023-04-16T09:15:04;100222.50;;;16.31;53.57
31121;BME280;17770;45.966;13.632;2023-04-16T09:17:31;100220.75;;;16.32;53.90
31121;BME280;17770;45.966;13.632;2023-04-16T09:19:56;100222.50;;;16.31;53.41
31121;BME280;17770;45.966;13.632;2023-04-16T09:22:22;100210.34;;;16.32;53.83
31121;BME280;17770;45.966;13.632;2023-04-16T09:24:48;100217.16;;;16.34;53.99
31121;BME280;17770;45.966;13.632;2023-04-16T09:27:14;100212.03;;;16.33;53.74
31121;BME280;17770;45.966;13.632;2023-04-16T09:29:41;100220.66;;;16.33;53.43
31121;BME280;17770;45.966;13.632;2023-04-16T09:32:07;100206.81;;;16.33;53.53
31121;BME280;17770;45.966;13.632;2023-04-16T09:34:34;100211.00;;;16.35;53.42
31121;BME280;17770;45.966;13.632;2023-04-16T09:37:18;100206.75;;;16.34;53.46
31121;BME280;17770;45.966;13.632;2023-04-16T09:39:44;100219.66;;;16.36;53.35
31121;BME280;17770;45.966;13.632;2023-04-16T09:42:20;100215.34;;;16.35;53.40
31121;BME280;17770;45.966;13.632;2023-04-16T09:44:45;100217.97;;;16.35;53.96
31121;BME280;17770;45.966;13.632;2023-04-16T09:47:13;100222.25;;;16.36;53.49
31121;BME280;17770;45.966;13.632;2023-04-16T09:49:40;100217.88;;;16.36;54.08
31121;BME280;17770;45.966;13.632;2023-04-16T09:52:13;100212.66;;;16.36;53.77
31121;BME280;17770;45.966;13.632;2023-04-16T09:54:49;100224.78;;;16.37;53.74
31121;BME280;17770;45.966;13.632;2023-04-16T09:57:22;100225.53;;;16.39;54.08
31121;BME280;17770;45.966;13.632;2023-04-16T09:59:52;100215.13;;;16.39;53.60
31121;BME280;17770;45.966;13.632;2023-04-16T10:02:18;100226.34;;;16.40;53.48
31121;BME280;17770;45.966;13.632;2023-04-16T10:04:45;100218.56;;;16.40;53.62
31121;BME280;17770;45.966;13.632;2023-04-16T10:07:11;100205.44;;;16.41;54.00
31121;BME280;17770;45.966;13.632;2023-04-16T10:09:37;100216.72;;;16.42;53.94
31121;BME280;17770;45.966;13.632;2023-04-16T10:12:04;100209.75;;;16.42;53.70
31121;BME280;17770;45.966;13.632;2023-04-16T10:14:31;100202.69;;;16.44;53.50
31121;BME280;17770;45.966;13.632;2023-04-16T10:16:57;100207.91;;;16.44;54.04
31121;BME280;17770;45.966;13.632;2023-04-16T10:19:26;100192.22;;;16.46;53.94
31121;BME280;17770;45.966;13.632;2023-04-16T10:21:52;100200.03;;;16.46;53.91
31121;BME280;17770;45.966;13.632;2023-04-16T10:24:19;100202.56;;;16.47;53.54
31121;BME280;17770;45.966;13.632;2023-04-16T10:26:45;100206.81;;;16.48;53.70
31121;BME280;17770;45.966;13.632;2023-04-16T10:29:11;100208.53;;;16.49;53.70
31121;BME280;17770;45.966;13.632;2023-04-16T10:31:38;100198.09;;;16.49;53.92
31121;BME280;17770;45.966;13.632;2023-04-16T10:34:05;100197.16;;;16.50;53.62
31121;BME280;17770;45.966;13.632;2023-04-16T10:36:34;100198.84;;;16.51;54.05
31121;BME280;17770;45.966;13.632;2023-04-16T10:39:00;100191.78;;;16.53;53.50
31121;BME280;17770;45.966;13.632;2023-04-16T10:41:26;100183.88;;;16.55;54.38
31121;BME280;17770;45.966;13.632;2023-04-16T10:43:55;100189.09;;;16.55;53.67
31121;BME280;17770;45.966;13.632;2023-04-16T10:46:37;100186.41;;;16.56;53.75
31121;BME280;17770;45.966;13.632;2023-04-16T10:49:13;100182.03;;;16.57;54.16
31121;BME280;17770;45.966;13.632;2023-04-16T10:51:40;100176.75;;;16.58;53.83
31121;BME280;17770;45.966;13.632;2023-04-16T10:56:37;100179.16;;;16.61;53.88
31121;BME280;17770;45.966;13.632;2023-04-16T10:59:03;100174.72;;;16.63;54.14
31121;BME280;17770;45.966;13.632;2023-04-16T11:01:30;100178.16;;;16.64;53.76
31121;BME280;17770;45.966;13.632;2023-04-16T11:03:57;100179.84;;;16.65;53.67
31121;BME280;17770;45.966;13.632;2023-04-16T11:06:24;100175.38;;;16.67;54.04
31121;BME280;17770;45.966;13.632;2023-04-16T11:08:51;100177.06;;;16.68;54.21
31121;BME280;17770;45.966;13.632;2023-04-16T11:11:17;100167.47;;;16.68;54.19
31121;BME280;17770;45.966;13.632;2023-04-16T11:13:43;100171.75;;;16.69;54.20
31121;BME280;17770;45.966;13.632;2023-04-16T11:16:10;100172.59;;;16.70;53.96
31121;BME280;17770;45.966;13.632;2023-04-16T11:18:37;100184.69;;;16.71;53.65
31121;BME280;17770;45.966;13.632;2023-04-16T11:21:08;100166.44;;;16.71;54.26
31121;BME280;17770;45.966;13.632;2023-04-16T11:23:48;100169.00;;;16.72;54.23
31121;BME280;17770;45.966;13.632;2023-04-16T11:26:21;100180.22;;;16.73;54.44
31121;BME280;17770;45.966;13.632;2023-04-16T11:28:47;100189.84;;;16.72;54.01
31121;BME280;17770;45.966;13.632;2023-04-16T11:31:13;100181.16;;;16.72;54.49
31121;BME280;17770;45.966;13.632;2023-04-16T11:33:39;100184.63;;;16.72;54.48
31121;BME280;17770;45.966;13.632;2023-04-16T11:36:05;100181.00;;;16.75;54.67
31121;BME280;17770;45.966;13.632;2023-04-16T11:38:32;100181.84;;;16.75;54.66
31121;BME280;17770;45.966;13.632;2023-04-16T11:41:00;100182.66;;;16.76;54.75
31121;BME280;17770;45.966;13.632;2023-04-16T11:43:26;100171.41;;;16.75;54.83
31121;BME280;17770;45.966;13.632;2023-04-16T11:45:56;100174.84;;;16.76;54.71
31121;BME280;17770;45.966;13.632;2023-04-16T11:48:22;100191.31;;;16.76;54.49
31121;BME280;17770;45.966;13.632;2023-04-16T11:50:57;100176.53;;;16.77;55.06
31121;BME280;17770;45.966;13.632;2023-04-16T11:53:23;100191.97;;;16.80;54.71
31121;BME280;17770;45.966;13.632;2023-04-16T11:55:49;100180.72;;;16.79;55.17
31121;BME280;17770;45.966;13.632;2023-04-16T11:58:15;100179.81;;;16.80;55.11
31121;BME280;17770;45.966;13.632;2023-04-16T12:00:41;100183.31;;;16.79;55.04
31121;BME280;17770;45.966;13.632;2023-04-16T12:03:07;100191.03;;;16.81;55.34
31121;BME280;17770;45.966;13.632;2023-04-16T12:05:34;100185.75;;;16.82;55.37
31121;BME280;17770;45.966;13.632;2023-04-16T12:08:05;100187.44;;;16.83;55.11
31121;BME280;17770;45.966;13.632;2023-04-16T12:10:32;100181.38;;;16.83;54.96
31121;BME280;17770;45.966;13.632;2023-04-16T12:13:08;100187.34;;;16.85;54.71
31121;BME280;17770;45.966;13.632;2023-04-16T12:15:44;100187.25;;;16.86;55.77
31121;BME280;17770;45.966;13.632;2023-04-16T12:18:10;100186.31;;;16.87;55.31
31121;BME280;17770;45.966;13.632;2023-04-16T12:20:39;100181.09;;;16.87;55.25
31121;BME280;17770;45.966;13.632;2023-04-16T12:23:08;100187.06;;;16.89;55.54
31121;BME280;17770;45.966;13.632;2023-04-16T12:25:34;100180.94;;;16.90;56.40
31121;BME280;17770;45.966;13.632;2023-04-16T12:28:00;100188.78;;;16.90;55.84
31121;BME280;17770;45.966;13.632;2023-04-16T12:30:26;100169.59;;;16.91;55.39
31121;BME280;17770;45.966;13.632;2023-04-16T12:33:37;100168.66;;;16.92;54.81
31121;BME280;17770;45.966;13.632;2023-04-16T12:35:38;100162.53;;;16.93;55.20
31121;BME280;17770;45.966;13.632;2023-04-16T12:38:06;100172.78;;;16.97;54.75
31121;BME280;17770;45.966;13.632;2023-04-16T12:40:32;100168.41;;;16.97;54.89
31121;BME280;17770;45.966;13.632;2023-04-16T12:42:58;100168.31;;;16.99;55.82
31121;BME280;17770;45.966;13.632;2023-04-16T12:45:24;100166.47;;;17.01;55.75